createdAt,value
2022-10-25T00:00:57.879Z,4.22
2022-10-25T00:03:24.477Z,2.90
2022-10-25T00:05:51.052Z,3.17
2022-10-25T00:08:17.717Z,5.10
2022-10-25T00:10:44.300Z,5.68
2022-10-25T00:13:10.950Z,7.57
2022-10-25T00:15:37.553Z,3.35
2022-10-25T00:18:04.533Z,4.50
2022-10-25T00:20:31.125Z,5.00
2022-10-25T00:22:58.988Z,5.28
2022-10-25T00:25:25.553Z,2.80
2022-10-25T00:27:52.174Z,6.55
2022-10-25T00:30:18.881Z,4.03
2022-10-25T00:32:45.719Z,5.03
2022-10-25T00:35:12.644Z,4.88
2022-10-25T00:37:39.593Z,3.03
2022-10-25T00:40:06.487Z,4.93
2022-10-25T00:42:33.168Z,4.20
2022-10-25T00:45:01.905Z,2.67
2022-10-25T00:47:40.263Z,2.20
2022-10-25T00:50:09.587Z,5.97
2022-10-25T00:52:36.831Z,4.22
2022-10-25T00:55:05.307Z,5.18
2022-10-25T00:57:34.517Z,5.25
2022-10-25T01:00:05.486Z,4.13
2022-10-25T01:02:32.178Z,4.85
2022-10-25T01:04:58.951Z,6.07
2022-10-25T01:07:25.602Z,3.22
2022-10-25T01:09:52.433Z,6.53
2022-10-25T01:12:19.009Z,3.97
2022-10-25T01:14:47.563Z,5.40
2022-10-25T01:17:14.126Z,3.00
2022-10-25T01:19:59.347Z,3.65
2022-10-25T01:22:35.745Z,2.72
2022-10-25T01:25:20.829Z,2.33
2022-10-25T01:27:52.103Z,4.18
2022-10-25T01:30:37.250Z,3.13
2022-10-25T01:33:22.192Z,3.60
2022-10-25T01:35:48.733Z,4.05
2022-10-25T01:38:21.044Z,5.78
2022-10-25T01:40:56.777Z,2.90
2022-10-25T01:43:29.794Z,6.28
2022-10-25T01:46:08.859Z,5.43
2022-10-25T01:48:39.468Z,4.90
2022-10-25T01:51:09.976Z,3.15
2022-10-25T01:53:50.315Z,3.13
2022-10-25T01:56:39.937Z,6.05
2022-10-25T01:59:17.917Z,5.00
2022-10-25T02:01:56.424Z,2.33
2022-10-25T02:04:35.236Z,3.83
2022-10-25T02:07:07.829Z,4.50
2022-10-25T02:09:43.501Z,7.55
2022-10-25T02:12:14.351Z,4.10
2022-10-25T02:14:44.926Z,8.80
2022-10-25T02:17:19.676Z,3.67
2022-10-25T02:19:58.321Z,6.53
2022-10-25T02:22:27.250Z,1.92
2022-10-25T02:24:55.700Z,4.45
2022-10-25T02:27:23.477Z,1.63
2022-10-25T02:29:52.137Z,2.22
2022-10-25T02:32:18.697Z,4.95
2022-10-25T02:34:47.816Z,7.78
2022-10-25T02:37:14.399Z,6.68
2022-10-25T02:39:40.967Z,3.70
2022-10-25T02:42:07.589Z,5.65
2022-10-25T02:44:34.242Z,3.45
2022-10-25T02:47:00.776Z,4.43
2022-10-25T02:49:27.540Z,4.30
2022-10-25T02:51:54.129Z,5.53
2022-10-25T02:54:20.702Z,1.25
2022-10-25T02:56:48.755Z,5.32
2022-10-25T02:59:15.339Z,9.98
2022-10-25T03:01:42.053Z,2.60
2022-10-25T03:04:08.746Z,2.78
2022-10-25T03:06:35.464Z,3.72
2022-10-25T03:09:02.054Z,2.95
2022-10-25T03:11:28.736Z,4.43
2022-10-25T03:13:55.341Z,3.08
2022-10-25T03:16:21.892Z,3.75
2022-10-25T03:18:48.564Z,5.00
2022-10-25T03:21:15.165Z,6.03
2022-10-25T03:23:41.806Z,3.17
2022-10-25T03:26:08.409Z,4.57
2022-10-25T03:28:34.996Z,3.28
2022-10-25T03:31:01.618Z,5.05
2022-10-25T03:33:28.596Z,3.40
2022-10-25T03:35:55.329Z,4.53
2022-10-25T03:38:22.055Z,3.08
2022-10-25T03:40:48.678Z,3.90
2022-10-25T03:43:15.350Z,4.43
2022-10-25T03:45:41.998Z,5.93
2022-10-25T03:48:09.051Z,4.30
2022-10-25T03:50:36.309Z,2.45
2022-10-25T03:53:03.756Z,2.63
2022-10-25T03:55:30.854Z,3.22
2022-10-25T03:57:57.481Z,3.83
2022-10-25T04:00:24.037Z,6.85
2022-10-25T04:02:59.319Z,2.92
2022-10-25T04:05:28.898Z,4.05
2022-10-25T04:07:55.512Z,12.02
2022-10-25T04:10:22.135Z,7.68
2022-10-25T04:12:48.752Z,1.83
2022-10-25T04:15:15.857Z,6.55
2022-10-25T04:17:42.508Z,3.88
2022-10-25T04:20:09.417Z,2.80
2022-10-25T04:25:03.655Z,7.85
2022-10-25T04:27:30.253Z,2.95
2022-10-25T04:29:56.925Z,2.88
2022-10-25T04:32:23.636Z,10.55
2022-10-25T04:34:50.263Z,5.32
2022-10-25T04:37:16.942Z,9.30
2022-10-25T04:39:43.538Z,6.95
2022-10-25T04:44:41.673Z,4.75
2022-10-25T04:47:08.243Z,6.95
2022-10-25T04:49:34.893Z,3.33
2022-10-25T04:52:01.556Z,6.53
2022-10-25T04:54:28.198Z,4.07
2022-10-25T04:56:54.806Z,8.45
2022-10-25T04:59:21.400Z,9.25
2022-10-25T05:01:48.113Z,2.58
2022-10-25T05:04:14.735Z,3.63
2022-10-25T05:06:41.362Z,2.83
2022-10-25T05:09:08.035Z,2.63
2022-10-25T05:11:34.633Z,8.48
2022-10-25T05:14:01.218Z,9.20
2022-10-25T05:16:28.448Z,11.75
2022-10-25T05:18:55.690Z,4.55
2022-10-25T05:21:23.441Z,8.75
2022-10-25T05:23:50.132Z,8.52
2022-10-25T05:26:18.674Z,4.93
2022-10-25T05:28:46.341Z,3.85
2022-10-25T05:31:15.271Z,5.05
2022-10-25T05:33:45.011Z,4.60
2022-10-25T05:36:12.518Z,6.05
2022-10-25T05:38:39.258Z,6.18
2022-10-25T05:41:06.303Z,10.65
2022-10-25T05:43:33.026Z,16.55
2022-10-25T05:46:10.947Z,8.88
2022-10-25T05:48:37.556Z,5.03
2022-10-25T05:51:28.688Z,5.65
2022-10-25T05:53:58.634Z,3.92
2022-10-25T05:56:27.122Z,5.53
2022-10-25T05:58:54.071Z,6.45
2022-10-25T06:01:21.659Z,5.15
2022-10-25T06:03:49.024Z,5.65
2022-10-25T06:06:15.973Z,7.85
2022-10-25T06:08:42.716Z,7.18
2022-10-25T06:11:10.720Z,7.35
2022-10-25T06:13:37.659Z,5.88
2022-10-25T06:16:07.581Z,12.65
2022-10-25T06:18:34.817Z,4.75
2022-10-25T06:21:02.558Z,5.38
2022-10-25T06:23:31.465Z,3.88
2022-10-25T06:26:02.043Z,4.35
2022-10-25T06:28:29.376Z,14.85
2022-10-25T06:31:05.968Z,13.80
2022-10-25T06:33:32.778Z,5.25
2022-10-25T06:36:01.244Z,6.43
2022-10-25T06:38:28.307Z,8.98
2022-10-25T06:41:06.279Z,7.45
2022-10-25T06:43:34.861Z,5.55
2022-10-25T06:46:12.067Z,8.70
2022-10-25T06:48:39.103Z,7.25
2022-10-25T06:51:06.846Z,6.68
2022-10-25T06:53:33.517Z,7.32
2022-10-25T06:56:04.575Z,13.85
2022-10-25T06:58:32.805Z,12.68
2022-10-25T07:01:03.500Z,9.55
2022-10-25T07:03:35.000Z,8.93
2022-10-25T07:06:09.594Z,7.85
2022-10-25T07:08:36.929Z,11.35
2022-10-25T07:11:03.832Z,11.70
2022-10-25T07:13:31.174Z,8.20
2022-10-25T07:16:02.241Z,8.52
2022-10-25T07:18:30.286Z,10.88
2022-10-25T07:21:00.524Z,9.52
2022-10-25T07:23:29.017Z,22.98
2022-10-25T07:25:55.753Z,18.52
2022-10-25T07:28:22.738Z,22.23
2022-10-25T07:30:49.396Z,19.98
2022-10-25T07:33:17.293Z,19.50
2022-10-25T07:36:06.457Z,15.40
2022-10-25T07:38:37.134Z,19.58
2022-10-25T07:41:03.965Z,13.27
2022-10-25T07:43:30.569Z,17.08
2022-10-25T07:45:57.388Z,18.00
2022-10-25T07:48:24.155Z,16.27
2022-10-25T07:50:50.821Z,16.40
2022-10-25T07:53:17.478Z,18.88
2022-10-25T07:55:49.279Z,20.50
2022-10-25T07:58:15.889Z,17.35
2022-10-25T08:00:42.621Z,17.30
2022-10-25T08:03:09.309Z,20.35
2022-10-25T08:05:35.967Z,18.52
2022-10-25T08:08:04.891Z,18.38
2022-10-25T08:10:32.107Z,19.35
2022-10-25T08:12:58.812Z,17.33
2022-10-25T08:15:25.420Z,22.50
2022-10-25T08:18:01.806Z,19.65
2022-10-25T08:20:49.513Z,18.60
2022-10-25T08:23:15.688Z,17.80
2022-10-25T08:25:42.644Z,19.75
2022-10-25T08:28:09.633Z,21.10
2022-10-25T08:30:36.273Z,20.48
2022-10-25T08:33:02.962Z,16.33
2022-10-25T08:35:29.536Z,17.10
2022-10-25T08:37:56.140Z,18.60
2022-10-25T08:40:31.494Z,14.02
2022-10-25T08:43:16.676Z,14.75
2022-10-25T08:45:49.503Z,21.75
2022-10-25T08:48:17.995Z,15.98
2022-10-25T08:50:46.994Z,26.15
2022-10-25T08:53:20.211Z,16.60
2022-10-25T08:58:36.699Z,18.15
2022-10-25T09:01:08.204Z,13.32
2022-10-25T09:03:35.005Z,22.58
2022-10-25T09:06:08.431Z,18.52
2022-10-25T09:08:53.511Z,16.35
2022-10-25T09:11:38.663Z,17.80
2022-10-25T09:14:12.086Z,18.35
2022-10-25T09:17:01.654Z,16.98
2022-10-25T09:19:35.620Z,16.48
2022-10-25T09:22:03.482Z,19.48
2022-10-25T09:24:33.284Z,13.85
2022-10-25T09:27:00.143Z,14.98
2022-10-25T09:29:32.628Z,15.52
2022-10-25T09:32:00.282Z,12.73
2022-10-25T09:34:33.018Z,19.77
2022-10-25T09:37:16.670Z,21.38
2022-10-25T09:39:49.132Z,15.88
2022-10-25T09:42:23.938Z,19.10
2022-10-25T09:44:53.512Z,15.60
2022-10-25T09:47:23.108Z,11.50
2022-10-25T09:50:04.166Z,10.85
2022-10-25T09:52:34.836Z,13.30
2022-10-25T09:55:13.832Z,9.90
2022-10-25T09:57:40.590Z,10.63
2022-10-25T10:00:14.313Z,11.80
2022-10-25T10:02:41.409Z,13.23
2022-10-25T10:05:17.966Z,13.55
2022-10-25T10:07:45.916Z,9.63
2022-10-25T10:10:14.548Z,10.43
2022-10-25T10:12:56.611Z,11.32
2022-10-25T10:15:28.232Z,13.20
2022-10-25T10:18:22.142Z,13.02
2022-10-25T10:21:00.985Z,12.93
2022-10-25T10:23:29.774Z,11.98
2022-10-25T10:25:56.369Z,11.88
2022-10-25T10:28:23.014Z,11.13
2022-10-25T10:30:56.895Z,9.27
2022-10-25T10:33:25.189Z,8.65
2022-10-25T10:35:53.801Z,9.10
2022-10-25T10:38:29.670Z,12.35
2022-10-25T10:41:14.551Z,11.52
2022-10-25T10:43:41.397Z,9.55
2022-10-25T10:46:14.543Z,9.50
2022-10-25T10:48:44.835Z,10.18
2022-10-25T10:51:25.523Z,9.10
2022-10-25T10:53:58.665Z,13.10
2022-10-25T10:56:25.260Z,11.18
2022-10-25T10:58:53.587Z,12.10
2022-10-25T11:01:32.916Z,12.40
2022-10-25T11:04:01.008Z,12.57
2022-10-25T11:06:32.652Z,13.80
2022-10-25T11:09:20.294Z,12.90
2022-10-25T11:12:05.911Z,11.02
2022-10-25T11:14:32.623Z,13.02
2022-10-25T11:17:11.310Z,9.70
2022-10-25T11:19:43.908Z,12.25
2022-10-25T11:22:32.142Z,10.50
2022-10-25T11:25:02.523Z,13.52
2022-10-25T11:28:04.466Z,12.05
2022-10-25T11:30:49.720Z,11.95
2022-10-25T11:33:22.100Z,10.20
2022-10-25T11:36:02.613Z,9.45
2022-10-25T11:38:41.184Z,15.32
2022-10-25T11:41:16.770Z,12.60
2022-10-25T11:43:46.228Z,13.63
2022-10-25T11:46:15.904Z,11.95
2022-10-25T11:48:54.363Z,9.95
2022-10-25T11:51:27.411Z,10.25
2022-10-25T11:54:03.624Z,14.38
2022-10-25T11:56:42.416Z,13.27
2022-10-25T11:59:09.000Z,11.55
2022-10-25T12:01:35.662Z,8.65
2022-10-25T12:04:02.307Z,9.35
2022-10-25T12:06:28.900Z,12.43
2022-10-25T12:09:21.572Z,9.95
2022-10-25T12:12:03.087Z,8.90
2022-10-25T12:14:34.045Z,15.68
2022-10-25T12:17:01.888Z,8.07
2022-10-25T12:19:29.850Z,9.88
2022-10-25T12:22:02.082Z,12.15
2022-10-25T12:24:41.787Z,9.05
2022-10-25T12:27:09.274Z,16.90
2022-10-25T12:29:39.217Z,11.75
2022-10-25T12:32:12.694Z,10.77
2022-10-25T12:34:50.785Z,10.85
2022-10-25T12:37:26.423Z,8.18
2022-10-25T12:39:53.138Z,8.55
2022-10-25T12:42:40.836Z,9.43
2022-10-25T12:45:19.590Z,8.07
2022-10-25T12:47:53.124Z,10.93
2022-10-25T12:50:25.742Z,9.38
2022-10-25T12:53:10.790Z,9.77
2022-10-25T12:55:59.470Z,10.00
2022-10-25T12:58:44.962Z,13.15
2022-10-25T13:01:20.474Z,7.07
2022-10-25T13:03:49.911Z,8.68
2022-10-25T13:06:16.616Z,9.07
2022-10-25T13:08:43.649Z,10.05
2022-10-25T13:11:10.871Z,15.35
2022-10-25T13:13:47.413Z,9.10
2022-10-25T13:16:22.293Z,8.82
2022-10-25T13:19:08.862Z,6.15
2022-10-25T13:21:53.708Z,7.88
2022-10-25T13:24:37.443Z,7.70
2022-10-25T13:27:13.446Z,8.18
2022-10-25T13:29:45.637Z,8.85
2022-10-25T13:32:21.722Z,8.68
2022-10-25T13:34:48.507Z,6.13
2022-10-25T13:37:45.031Z,8.85
2022-10-25T13:40:19.468Z,8.45
2022-10-25T13:42:47.732Z,6.70
2022-10-25T13:45:21.061Z,9.55
2022-10-25T13:47:52.389Z,6.93
2022-10-25T13:50:41.335Z,6.97
2022-10-25T13:53:14.038Z,7.72
2022-10-25T13:55:47.858Z,7.60
2022-10-25T13:58:31.894Z,10.65
2022-10-25T14:01:17.390Z,9.85
2022-10-25T14:03:50.286Z,7.78
2022-10-25T14:06:28.670Z,7.68
2022-10-25T14:09:17.875Z,7.30
2022-10-25T14:12:07.600Z,6.82
2022-10-25T14:14:49.244Z,8.38
2022-10-25T14:17:24.779Z,7.72
2022-10-25T14:19:52.799Z,9.77
2022-10-25T14:22:26.863Z,11.77
2022-10-25T14:24:56.053Z,5.93
2022-10-25T14:27:28.323Z,6.10
2022-10-25T14:30:11.375Z,7.80
2022-10-25T14:32:38.913Z,9.07
2022-10-25T14:35:06.151Z,7.75
2022-10-25T14:37:33.057Z,8.18
2022-10-25T14:40:01.016Z,8.05
2022-10-25T14:42:27.718Z,7.40
2022-10-25T14:44:54.361Z,15.52
2022-10-25T14:47:27.156Z,8.20
2022-10-25T14:49:53.832Z,8.27
2022-10-25T14:52:20.620Z,6.20
2022-10-25T14:54:52.540Z,10.20
2022-10-25T14:57:24.345Z,11.00
2022-10-25T14:59:53.842Z,5.13
2022-10-25T15:02:28.971Z,9.93
2022-10-25T15:04:59.923Z,6.25
2022-10-25T15:07:33.784Z,10.07
2022-10-25T15:10:01.588Z,6.25
2022-10-25T15:12:29.050Z,9.77
2022-10-25T15:14:56.928Z,10.27
2022-10-25T15:17:30.616Z,4.47
2022-10-25T15:20:14.011Z,3.17
2022-10-25T15:22:42.504Z,6.47
2022-10-25T15:25:29.793Z,3.42
2022-10-25T15:27:56.968Z,2.88
2022-10-25T15:30:43.484Z,6.13
2022-10-25T15:33:11.811Z,3.22
2022-10-25T15:35:45.511Z,9.20
2022-10-25T15:38:12.126Z,4.57
2022-10-25T15:40:38.903Z,4.63
2022-10-25T15:43:05.573Z,7.45
2022-10-25T15:45:33.555Z,14.32
2022-10-25T15:48:00.301Z,5.70
2022-10-25T15:50:27.059Z,4.95
2022-10-25T15:52:54.046Z,7.45
2022-10-25T15:55:22.698Z,6.30
2022-10-25T15:57:50.103Z,5.38
2022-10-25T16:00:17.668Z,5.35
2022-10-25T16:02:44.989Z,4.95
2022-10-25T16:05:22.438Z,6.80
2022-10-25T16:07:49.669Z,5.35
2022-10-25T16:10:16.656Z,7.72
2022-10-25T16:12:45.237Z,8.75
2022-10-25T16:15:14.265Z,4.90
2022-10-25T16:17:41.492Z,5.28
2022-10-25T16:20:19.445Z,6.45
2022-10-25T16:22:46.681Z,5.40
2022-10-25T16:25:14.201Z,5.32
2022-10-25T16:27:43.153Z,9.00
2022-10-25T16:30:13.928Z,10.75
2022-10-25T16:32:40.825Z,5.15
2022-10-25T16:35:07.628Z,8.07
2022-10-25T16:37:34.300Z,6.07
2022-10-25T16:40:01.179Z,5.88
2022-10-25T16:42:29.641Z,5.25
2022-10-25T16:44:56.843Z,6.60
2022-10-25T16:47:23.650Z,8.60
2022-10-25T16:49:50.522Z,10.65
2022-10-25T16:52:17.545Z,6.80
2022-10-25T16:54:44.235Z,7.35
2022-10-25T16:57:10.880Z,5.88
2022-10-25T16:59:37.494Z,11.82
2022-10-25T17:02:04.647Z,9.23
2022-10-25T17:04:31.361Z,12.25
2022-10-25T17:06:58.022Z,8.65
2022-10-25T17:09:24.644Z,7.88
2022-10-25T17:11:51.246Z,7.47
2022-10-25T17:14:17.811Z,8.55
2022-10-25T17:16:44.769Z,9.98
2022-10-25T17:19:11.724Z,8.18
2022-10-25T17:21:38.893Z,5.28
2022-10-25T17:24:06.699Z,4.97
2022-10-25T17:26:33.296Z,13.18
2022-10-25T17:29:00.956Z,7.43
2022-10-25T17:31:32.643Z,13.23
2022-10-25T17:34:00.373Z,10.25
2022-10-25T17:36:27.293Z,6.88
2022-10-25T17:38:54.400Z,4.43
2022-10-25T17:41:21.038Z,5.78
2022-10-25T17:43:47.630Z,9.63
2022-10-25T17:46:16.724Z,7.82
2022-10-25T17:48:43.691Z,5.53
2022-10-25T17:51:11.526Z,10.23
2022-10-25T17:53:38.510Z,7.72
2022-10-25T17:56:12.902Z,10.93
2022-10-25T17:58:43.346Z,7.55
2022-10-25T18:01:10.917Z,7.28
2022-10-25T18:03:38.132Z,11.23
2022-10-25T18:06:06.196Z,7.30
2022-10-25T18:08:32.792Z,10.95
2022-10-25T18:11:07.262Z,6.70
2022-10-25T18:13:34.009Z,6.95
2022-10-25T18:16:01.282Z,4.70
2022-10-25T18:18:27.940Z,6.72
2022-10-25T18:20:54.560Z,6.40
2022-10-25T18:23:21.108Z,5.13
2022-10-25T18:25:51.939Z,4.55
2022-10-25T18:28:18.556Z,3.97
2022-10-25T18:30:45.129Z,5.97
2022-10-25T18:33:14.602Z,8.30
2022-10-25T18:35:41.855Z,8.88
2022-10-25T18:38:08.567Z,7.35
2022-10-25T18:40:35.974Z,9.82
2022-10-25T18:43:02.592Z,4.45
2022-10-25T18:45:29.285Z,9.23
2022-10-25T18:47:58.912Z,5.68
2022-10-25T18:50:27.639Z,5.78
2022-10-25T18:52:54.234Z,5.78
2022-10-25T18:55:26.523Z,8.88
2022-10-25T18:57:54.762Z,6.05
2022-10-25T19:00:29.433Z,3.63
2022-10-25T19:02:56.497Z,3.60
2022-10-25T19:05:23.789Z,3.88
2022-10-25T19:07:51.236Z,6.82
2022-10-25T19:10:17.973Z,7.38
2022-10-25T19:12:44.680Z,9.98
2022-10-25T19:15:11.398Z,6.10
2022-10-25T19:17:40.545Z,4.70
2022-10-25T19:20:07.606Z,5.80
2022-10-25T19:22:34.319Z,4.20
2022-10-25T19:25:00.926Z,7.38
2022-10-25T19:27:29.085Z,9.68
2022-10-25T19:29:57.800Z,11.40
2022-10-25T19:32:24.478Z,7.22
2022-10-25T19:34:56.550Z,11.32
2022-10-25T19:37:23.528Z,13.93
2022-10-25T19:39:50.185Z,8.30
2022-10-25T19:42:16.933Z,6.40
2022-10-25T19:44:43.597Z,6.07
2022-10-25T19:47:10.386Z,7.40
2022-10-25T19:49:37.060Z,5.97
2022-10-25T19:52:03.795Z,2.67
2022-10-25T19:54:30.414Z,5.93
2022-10-25T19:56:57.095Z,4.75
2022-10-25T19:59:23.699Z,8.48
2022-10-25T20:01:50.435Z,5.75
2022-10-25T20:04:17.211Z,10.73
2022-10-25T20:06:43.842Z,15.70
2022-10-25T20:09:10.458Z,6.05
2022-10-25T20:11:37.146Z,9.40
2022-10-25T20:14:04.538Z,5.05
2022-10-25T20:16:31.808Z,15.23
2022-10-25T20:18:59.659Z,10.45
2022-10-25T20:21:33.016Z,7.30
2022-10-25T20:24:01.092Z,9.38
2022-10-25T20:26:32.096Z,6.68
2022-10-25T20:29:00.439Z,14.43
2022-10-25T20:31:28.318Z,8.07
2022-10-25T20:33:55.460Z,6.65
2022-10-25T20:36:22.091Z,8.23
2022-10-25T20:38:48.682Z,5.55
2022-10-25T20:41:17.418Z,10.02
2022-10-25T20:43:51.579Z,12.82
2022-10-25T20:46:18.678Z,8.05
2022-10-25T20:48:46.445Z,12.27
2022-10-25T20:51:15.567Z,15.05
2022-10-25T20:53:44.172Z,9.00
2022-10-25T20:56:10.918Z,12.63
2022-10-25T20:58:37.498Z,10.05
2022-10-25T21:01:04.464Z,10.93
2022-10-25T21:03:31.665Z,11.77
2022-10-25T21:05:59.444Z,8.10
2022-10-25T21:08:26.390Z,8.23
2022-10-25T21:10:54.780Z,9.10
2022-10-25T21:13:25.185Z,10.27
2022-10-25T21:15:52.315Z,13.60
2022-10-25T21:18:19.324Z,5.35
2022-10-25T21:20:46.997Z,6.97
2022-10-25T21:23:13.827Z,7.18
2022-10-25T21:25:40.472Z,4.47
2022-10-25T21:28:07.082Z,16.52
2022-10-25T21:30:33.772Z,6.00
2022-10-25T21:33:00.386Z,9.43
2022-10-25T21:35:26.950Z,14.80
2022-10-25T21:37:53.900Z,8.82
2022-10-25T21:40:20.672Z,8.60
2022-10-25T21:42:47.334Z,8.82
2022-10-25T21:45:13.910Z,7.65
2022-10-25T21:47:40.531Z,8.38
2022-10-25T21:50:09.474Z,9.73
2022-10-25T21:52:36.681Z,10.38
2022-10-25T21:55:03.422Z,17.67
2022-10-25T21:57:30.056Z,6.47
2022-10-25T21:59:56.624Z,14.57
2022-10-25T22:02:23.453Z,12.57
2022-10-25T22:04:50.216Z,8.25
2022-10-25T22:07:16.844Z,5.95
2022-10-25T22:09:43.405Z,11.45
2022-10-25T22:12:09.997Z,6.70
2022-10-25T22:14:36.634Z,11.93
2022-10-25T22:17:03.253Z,6.82
2022-10-25T22:19:29.959Z,10.73
2022-10-25T22:21:56.541Z,6.80
2022-10-25T22:24:23.230Z,9.82
2022-10-25T22:26:50.289Z,9.35
2022-10-25T22:29:16.848Z,11.88
2022-10-25T22:31:49.393Z,10.35
2022-10-25T22:34:21.866Z,11.18
2022-10-25T22:36:48.551Z,11.82
2022-10-25T22:39:16.583Z,9.45
2022-10-25T22:41:43.203Z,7.63
2022-10-25T22:44:09.878Z,9.48
2022-10-25T22:46:36.592Z,10.63
2022-10-25T22:49:07.185Z,9.13
2022-10-25T22:51:34.109Z,15.00
2022-10-25T22:54:00.781Z,9.40
2022-10-25T22:56:28.125Z,11.13
2022-10-25T22:58:56.196Z,9.48
2022-10-25T23:01:25.871Z,9.13
2022-10-25T23:03:55.994Z,11.52
2022-10-25T23:06:24.756Z,16.85
2022-10-25T23:08:59.323Z,11.13
2022-10-25T23:11:27.219Z,12.60
2022-10-25T23:13:53.891Z,15.93
2022-10-25T23:16:20.804Z,8.02
2022-10-25T23:18:47.447Z,11.38
2022-10-25T23:21:18.511Z,9.88
2022-10-25T23:23:45.529Z,10.82
2022-10-25T23:26:36.342Z,13.43
2022-10-25T23:29:03.782Z,10.40
2022-10-25T23:31:30.677Z,10.65
2022-10-25T23:33:58.370Z,7.57
2022-10-25T23:36:26.302Z,15.80
2022-10-25T23:38:53.789Z,11.35
2022-10-25T23:41:20.993Z,15.57
2022-10-25T23:43:47.716Z,12.23
2022-10-25T23:46:14.566Z,11.48
2022-10-25T23:48:41.172Z,13.95
2022-10-25T23:51:09.814Z,13.27
2022-10-25T23:53:36.419Z,12.02
2022-10-25T23:56:03.952Z,10.75
2022-10-25T23:58:30.810Z,10.18
